Terminal Aerodrome Forecast
Issued by NWS

Home | Current Version | Previous Version | Graphics & Text | Print | Product List | Glossary On
Versions: 1 2 3 4 5 6 7 8 9 10 11 12 13 14 15 16 17 18
000
FTUS43 KGRB 251139
TAFCWA
TAF
KCWA 251139Z 2512/2612 07012G19KT P6SM OVC012
     FM251800 07015G24KT 6SM -RA BR OVC010
     FM260300 07010KT 4SM -RA BR OVC008
     FM260700 08009KT 4SM -RA BR OVC006
     FM260800 08008KT 3SM -RA BR OVC003=

USA.gov is the U.S. government's official web portal to all federal, state and local government web resources and services.